Time;durP1;ratioP1;P1;durP2;ratioP2;P2;SDS_P1;SDS_P2;PMS_P1;PMS_P2;Temp;Humidity;BMP_temperature;BMP_pressure;BME280_temperature;BME280_humidity;BME280_pressure;Samples;Min_cycle;Max_cycle;Signal;HPM_P1;HPM_P2
2023/12/25 00:01:11;;;;;;;233.27;140.82;;;;;;;11.15;nan;99301.28;4875187;29;20056;-69
2023/12/25 00:03:40;;;;;;;217.88;136.32;;;;;;;11.01;nan;99302.91;4874978;29;20056;-70
2023/12/25 00:06:17;;;;;;;225.63;138.00;;;;;;;10.96;nan;99305.28;4870831;29;20048;-70
2023/12/25 00:08:51;;;;;;;233.43;140.35;;;;;;;11.10;nan;99303.66;4873346;29;20052;-70
2023/12/25 00:11:22;;;;;;;235.07;141.55;;;;;;;11.26;nan;99306.13;4871873;29;20080;-70
2023/12/25 00:13:54;;;;;;;239.43;145.10;;;;;;;10.95;nan;99302.78;4873401;29;20141;-70
2023/12/25 00:16:26;;;;;;;222.57;140.57;;;;;;;11.09;nan;99305.47;4861631;29;20999;-70
2023/12/25 00:18:58;;;;;;;246.07;147.27;;;;;;;10.82;nan;99304.25;4846392;29;20619;-70
2023/12/25 00:21:28;;;;;;;245.05;146.80;;;;;;;10.94;nan;99312.56;4849003;29;20870;-70
2023/12/25 00:23:57;;;;;;;244.35;143.25;;;;;;;10.82;nan;99314.84;4867349;29;20060;-70
2023/12/25 00:26:27;;;;;;;236.50;142.43;;;;;;;10.67;nan;99311.31;4851030;29;20053;-70
2023/12/25 00:29:02;;;;;;;232.60;133.70;;;;;;;10.62;nan;99310.22;4868382;29;20056;-70
2023/12/25 00:31:32;;;;;;;232.82;133.40;;;;;;;10.48;nan;99310.97;4868000;29;20067;-70
2023/12/25 00:34:02;;;;;;;263.58;134.43;;;;;;;10.31;nan;99311.06;4874461;29;20397;-70
2023/12/25 00:36:31;;;;;;;239.68;129.65;;;;;;;10.30;nan;99306.81;4871695;29;20044;-70
2023/12/25 00:39:00;;;;;;;310.15;130.00;;;;;;;10.11;nan;99317.81;4880139;29;20833;-70
2023/12/25 00:41:31;;;;;;;281.23;127.70;;;;;;;10.06;nan;99311.38;4885118;29;20503;-70
2023/12/25 00:44:01;;;;;;;265.63;130.93;;;;;;;10.02;nan;99315.38;4880982;29;20041;-70
2023/12/25 00:46:30;;;;;;;285.52;132.10;;;;;;;9.95;nan;99309.97;4875970;29;20136;-70
2023/12/25 00:48:59;;;;;;;246.88;132.27;;;;;;;10.01;nan;99313.72;4877825;29;20063;-70
2023/12/25 00:51:29;;;;;;;247.98;132.52;;;;;;;10.23;nan;99318.25;4901344;29;20079;-70
2023/12/25 00:54:00;;;;;;;259.85;138.85;;;;;;;10.28;nan;99315.91;4875109;29;20057;-70
2023/12/25 00:56:29;;;;;;;280.02;138.55;;;;;;;10.32;nan;99318.03;4856429;29;20139;-70
2023/12/25 00:58:59;;;;;;;271.73;139.68;;;;;;;10.43;nan;99316.81;4863699;29;20057;-70
2023/12/25 01:01:29;;;;;;;273.83;140.02;;;;;;;10.62;nan;99313.66;4879564;29;20052;-70
2023/12/25 01:03:59;;;;;;;294.35;146.43;;;;;;;10.69;nan;99317.25;4874968;29;20053;-70
2023/12/25 01:06:28;;;;;;;293.08;149.02;;;;;;;10.68;nan;99326.22;4864095;29;20063;-70
2023/12/25 01:08:59;;;;;;;291.50;148.85;;;;;;;10.85;nan;99313.63;4869751;29;20492;-70
2023/12/25 01:11:28;;;;;;;283.52;143.43;;;;;;;10.88;nan;99323.06;4869904;29;20065;-69
2023/12/25 01:13:58;;;;;;;299.85;147.85;;;;;;;10.96;nan;99315.06;4864819;29;20056;-71
2023/12/25 01:16:28;;;;;;;310.75;147.98;;;;;;;11.01;nan;99318.00;4873549;29;20048;-72
2023/12/25 01:18:58;;;;;;;297.50;146.23;;;;;;;11.06;nan;99318.28;4878173;29;20052;-69
2023/12/25 01:21:27;;;;;;;293.83;145.55;;;;;;;11.18;nan;99330.06;4874279;29;20137;-69
2023/12/25 01:23:57;;;;;;;317.73;149.93;;;;;;;11.19;nan;99326.44;4873907;29;20056;-69
2023/12/25 01:26:26;;;;;;;301.73;149.57;;;;;;;11.25;nan;99331.81;4866261;29;20053;-69
2023/12/25 01:28:56;;;;;;;300.23;146.02;;;;;;;11.28;nan;99328.00;4871398;29;20053;-69
2023/12/25 01:31:25;;;;;;;311.67;143.98;;;;;;;11.14;nan;99336.75;4872155;29;20124;-69
2023/12/25 01:33:54;;;;;;;286.85;147.48;;;;;;;11.16;nan;99334.72;4873759;29;20438;-69
2023/12/25 01:36:24;;;;;;;294.40;144.95;;;;;;;11.15;nan;99338.41;4870681;29;20063;-69
2023/12/25 01:38:53;;;;;;;299.27;140.45;;;;;;;11.10;nan;99333.63;4878040;29;20055;-70
2023/12/25 01:41:22;;;;;;;294.77;141.43;;;;;;;11.15;nan;99341.84;4870985;29;20141;-69
2023/12/25 01:43:52;;;;;;;277.27;142.50;;;;;;;11.14;nan;99342.88;4877941;29;20061;-69
2023/12/25 01:46:22;;;;;;;279.17;140.15;;;;;;;11.05;nan;99351.06;4865585;29;20053;-70
2023/12/25 01:48:54;;;;;;;280.52;141.18;;;;;;;11.15;nan;99352.44;4873832;29;20112;-68
2023/12/25 01:51:24;;;;;;;327.25;138.85;;;;;;;11.00;nan;99353.44;4870264;29;20075;-69
2023/12/25 01:53:54;;;;;;;289.30;136.60;;;;;;;10.93;nan;99348.00;4881257;29;20057;-69
2023/12/25 01:56:24;;;;;;;334.85;137.98;;;;;;;10.92;nan;99353.50;4869682;29;20132;-69
2023/12/25 01:58:54;;;;;;;282.95;140.50;;;;;;;10.95;nan;99358.44;4877044;29;20447;-69
2023/12/25 02:01:23;;;;;;;281.02;137.55;;;;;;;11.05;nan;99370.47;4876346;29;20060;-69
2023/12/25 02:03:53;;;;;;;292.25;140.52;;;;;;;11.19;nan;99350.28;4883424;29;20481;-70
2023/12/25 02:06:24;;;;;;;298.33;149.73;;;;;;;11.05;nan;99367.81;4870722;29;20495;-69
2023/12/25 02:08:54;;;;;;;299.13;147.93;;;;;;;11.09;nan;99362.97;4878804;29;20704;-69
2023/12/25 02:11:24;;;;;;;317.50;147.07;;;;;;;10.99;nan;99365.03;4882555;29;20109;-69
2023/12/25 02:13:56;;;;;;;366.83;153.85;;;;;;;10.92;nan;99364.94;4882759;29;20057;-69
2023/12/25 02:16:26;;;;;;;303.95;149.38;;;;;;;11.09;nan;99376.22;4877863;29;20049;-69
2023/12/25 02:18:56;;;;;;;308.88;145.30;;;;;;;11.13;nan;99377.50;4874241;29;20049;-69
2023/12/25 02:21:26;;;;;;;318.30;147.88;;;;;;;11.07;nan;99376.38;4873284;29;20052;-70
2023/12/25 02:24:00;;;;;;;378.67;149.98;;;;;;;10.97;nan;99385.59;4892032;29;20085;-70
2023/12/25 02:26:29;;;;;;;319.40;145.20;;;;;;;10.97;nan;99396.22;4881164;29;20477;-69
2023/12/25 02:28:59;;;;;;;296.23;140.63;;;;;;;11.05;nan;99390.84;4878287;29;20053;-70
2023/12/25 02:31:29;;;;;;;306.65;142.95;;;;;;;10.96;nan;99384.78;4871951;29;20109;-70
2023/12/25 02:33:59;;;;;;;327.50;142.85;;;;;;;10.96;nan;99394.56;4867303;29;20120;-70
2023/12/25 02:36:28;;;;;;;327.80;149.35;;;;;;;10.99;nan;99397.66;4869412;29;20048;-69
2023/12/25 02:38:58;;;;;;;295.08;145.32;;;;;;;11.22;nan;99406.44;4868463;29;20069;-69
2023/12/25 02:41:28;;;;;;;336.45;145.85;;;;;;;10.98;nan;99390.72;4868389;29;20064;-70
2023/12/25 02:43:58;;;;;;;299.05;141.63;;;;;;;10.92;nan;99394.09;4866786;29;20068;-69
2023/12/25 02:46:28;;;;;;;348.30;141.02;;;;;;;10.92;nan;99401.22;4871753;29;20051;-69
2023/12/25 02:48:57;;;;;;;358.35;141.32;;;;;;;10.88;nan;99405.22;4875123;29;20060;-70
2023/12/25 02:51:27;;;;;;;299.58;141.52;;;;;;;10.90;nan;99400.56;4875868;29;20053;-69
2023/12/25 02:53:56;;;;;;;330.58;141.10;;;;;;;10.90;nan;99401.38;4868149;29;20048;-69
2023/12/25 02:56:26;;;;;;;310.23;142.15;;;;;;;10.96;nan;99405.16;4869705;29;20776;-69
2023/12/25 02:58:56;;;;;;;298.17;140.88;;;;;;;11.00;nan;99411.75;4872863;29;20061;-70
2023/12/25 03:01:25;;;;;;;273.05;134.40;;;;;;;11.07;nan;99418.81;4867341;29;20136;-70
2023/12/25 03:03:55;;;;;;;285.05;135.77;;;;;;;10.97;nan;99412.13;4850712;29;20076;-70
2023/12/25 03:06:24;;;;;;;275.55;132.40;;;;;;;11.02;nan;99420.34;4870495;29;20059;-69
2023/12/25 03:08:54;;;;;;;258.63;132.85;;;;;;;11.05;nan;99422.66;4871129;29;20056;-70
2023/12/25 03:11:23;;;;;;;308.05;134.38;;;;;;;10.95;nan;99414.94;4878905;29;20045;-69
2023/12/25 03:13:53;;;;;;;277.13;131.77;;;;;;;10.98;nan;99419.03;4881916;29;20059;-70
2023/12/25 03:16:23;;;;;;;278.83;131.10;;;;;;;10.91;nan;99424.22;4881050;29;20049;-69
2023/12/25 03:18:52;;;;;;;261.38;129.18;;;;;;;10.99;nan;99432.13;4883423;29;20842;-70
2023/12/25 03:21:22;;;;;;;256.08;129.60;;;;;;;11.02;nan;99436.25;4853581;29;20102;-69
2023/12/25 03:23:51;;;;;;;277.50;130.32;;;;;;;10.98;nan;99443.72;4873496;29;20082;-70
2023/12/25 03:26:21;;;;;;;267.95;128.38;;;;;;;11.00;nan;99443.56;4881048;29;20163;-69
2023/12/25 03:28:50;;;;;;;242.88;124.30;;;;;;;11.01;nan;99440.72;4866823;29;20052;-70
2023/12/25 03:31:19;;;;;;;262.90;126.53;;;;;;;11.00;nan;99443.56;4873945;29;20620;-70
2023/12/25 03:33:49;;;;;;;240.30;127.25;;;;;;;11.22;nan;99448.84;4870756;29;20041;-70
2023/12/25 03:36:18;;;;;;;252.15;132.77;;;;;;;11.18;nan;99454.69;4864801;29;20085;-70
2023/12/25 03:38:48;;;;;;;247.57;128.18;;;;;;;11.31;nan;99462.88;4883627;29;20071;-70
2023/12/25 03:41:18;;;;;;;239.80;126.38;;;;;;;11.46;nan;99461.06;4865307;29;20202;-69
2023/12/25 03:43:48;;;;;;;230.40;126.25;;;;;;;11.35;nan;99465.97;4871850;29;20135;-70
2023/12/25 03:46:17;;;;;;;227.57;126.93;;;;;;;11.50;nan;99466.84;4866701;29;20181;-70
2023/12/25 03:48:46;;;;;;;242.07;126.93;;;;;;;11.41;nan;99467.91;4870740;29;20393;-70
2023/12/25 03:51:16;;;;;;;236.55;125.90;;;;;;;11.34;nan;99478.41;4866783;29;20124;-69
2023/12/25 03:53:46;;;;;;;239.98;129.48;;;;;;;11.28;nan;99471.97;4869017;29;20109;-69
2023/12/25 03:56:18;;;;;;;223.73;124.35;;;;;;;11.42;nan;99483.63;4868710;29;20057;-70
2023/12/25 03:58:48;;;;;;;225.70;122.35;;;;;;;11.54;nan;99490.19;4892615;29;20050;-69
2023/12/25 04:01:18;;;;;;;223.63;125.30;;;;;;;11.67;nan;99484.25;4864051;29;20045;-69
2023/12/25 04:03:49;;;;;;;228.93;127.32;;;;;;;11.60;nan;99500.06;4855639;29;20113;-69
2023/12/25 04:06:26;;;;;;;226.10;126.03;;;;;;;11.43;nan;99498.56;4867031;29;20372;-69
2023/12/25 04:08:56;;;;;;;225.07;124.53;;;;;;;11.52;nan;99500.13;4875015;29;20155;-70
2023/12/25 04:11:26;;;;;;;216.73;122.50;;;;;;;11.57;nan;99504.91;4873715;29;20060;-69
2023/12/25 04:13:55;;;;;;;220.65;120.55;;;;;;;11.68;nan;99515.09;4877987;29;20072;-69
2023/12/25 04:16:26;;;;;;;223.98;125.28;;;;;;;11.61;nan;99512.34;4877297;29;20648;-69
2023/12/25 04:18:56;;;;;;;227.68;124.88;;;;;;;11.56;nan;99513.88;4860130;29;20877;-69
2023/12/25 04:21:28;;;;;;;215.93;123.68;;;;;;;11.61;nan;99516.81;4854519;29;20378;-70
2023/12/25 04:23:58;;;;;;;224.13;123.25;;;;;;;11.73;nan;99523.34;4880899;29;20436;-70
2023/12/25 04:26:28;;;;;;;233.30;126.32;;;;;;;11.75;nan;99526.69;4869326;29;20068;-70
2023/12/25 04:28:58;;;;;;;227.80;126.18;;;;;;;11.68;nan;99536.34;4866339;29;20044;-70
2023/12/25 04:31:28;;;;;;;219.32;122.60;;;;;;;11.95;nan;99533.09;4873048;29;20132;-71
2023/12/25 04:33:58;;;;;;;222.52;125.38;;;;;;;12.06;nan;99527.38;4867273;29;20057;-71
2023/12/25 04:36:28;;;;;;;226.80;128.38;;;;;;;12.25;nan;99528.66;4865498;29;20052;-72
2023/12/25 04:38:58;;;;;;;220.95;123.95;;;;;;;12.25;nan;99533.97;4855021;29;20119;-72
2023/12/25 04:41:28;;;;;;;214.57;122.47;;;;;;;12.29;nan;99539.75;4862178;29;20132;-70
2023/12/25 04:43:58;;;;;;;214.55;122.75;;;;;;;12.33;nan;99533.88;4866267;29;20053;-71
2023/12/25 04:46:27;;;;;;;221.20;126.90;;;;;;;12.55;nan;99538.28;4865739;29;20144;-71
2023/12/25 04:48:56;;;;;;;216.90;125.80;;;;;;;12.52;nan;99532.50;4871261;29;20539;-69
2023/12/25 04:51:27;;;;;;;213.40;123.60;;;;;;;12.89;nan;99539.50;4868846;29;20040;-71
2023/12/25 04:53:56;;;;;;;195.55;120.20;;;;;;;13.10;nan;99539.53;4870824;29;20132;-72
2023/12/25 04:56:26;;;;;;;199.02;122.18;;;;;;;13.43;nan;99539.91;4868396;29;20057;-72
2023/12/25 04:58:56;;;;;;;205.77;123.22;;;;;;;13.56;nan;99548.03;4869711;29;20057;-72
2023/12/25 05:01:27;;;;;;;197.82;121.82;;;;;;;13.72;nan;99541.63;4868283;29;20528;-72
2023/12/25 05:03:56;;;;;;;196.18;121.20;;;;;;;13.92;nan;99540.75;4869425;29;20073;-72
2023/12/25 05:06:26;;;;;;;194.65;115.85;;;;;;;14.01;nan;99544.09;4878860;29;20057;-72
2023/12/25 05:08:56;;;;;;;181.27;113.68;;;;;;;14.23;nan;99543.03;4871911;29;20131;-72
2023/12/25 05:11:28;;;;;;;177.13;113.13;;;;;;;14.17;nan;99538.47;4869800;29;21309;-73
2023/12/25 05:13:58;;;;;;;187.05;115.00;;;;;;;14.56;nan;99531.78;4845789;29;20049;-71
2023/12/25 05:16:28;;;;;;;173.95;111.60;;;;;;;14.51;nan;99543.03;4862425;29;20057;-71
2023/12/25 05:18:57;;;;;;;174.48;113.80;;;;;;;14.73;nan;99536.56;4872564;29;20049;-70
2023/12/25 05:21:27;;;;;;;163.93;109.57;;;;;;;14.83;nan;99537.00;4870812;29;20112;-71
2023/12/25 05:23:56;;;;;;;165.55;110.05;;;;;;;14.81;nan;99528.41;4873819;29;20049;-70
2023/12/25 05:26:27;;;;;;;153.10;104.30;;;;;;;14.88;nan;99533.75;4866711;29;20135;-68
2023/12/25 05:28:56;;;;;;;147.25;104.55;;;;;;;15.32;nan;99530.56;4865474;29;20053;-70
2023/12/25 05:31:26;;;;;;;151.07;101.88;;;;;;;15.26;nan;99539.41;4868484;29;20052;-69
2023/12/25 05:33:56;;;;;;;148.43;100.00;;;;;;;15.44;nan;99533.50;4868539;29;20045;-69
2023/12/25 05:36:26;;;;;;;145.98;100.18;;;;;;;15.53;nan;99541.13;4872909;29;20053;-69
2023/12/25 05:38:55;;;;;;;145.18;103.13;;;;;;;15.63;nan;99530.03;4875852;29;20048;-69
2023/12/25 05:41:33;;;;;;;161.38;107.28;;;;;;;15.98;nan;99520.78;4865164;29;20217;-69
2023/12/25 05:44:02;;;;;;;144.55;101.25;;;;;;;16.23;nan;99528.97;4875006;29;20136;-70
2023/12/25 05:46:32;;;;;;;149.18;104.72;;;;;;;16.24;nan;99537.81;4873595;29;20069;-69
2023/12/25 05:49:02;;;;;;;143.90;99.88;;;;;;;16.37;nan;99533.28;4871113;29;20048;-70
2023/12/25 05:51:32;;;;;;;151.50;101.15;;;;;;;16.81;nan;99524.53;4871398;29;20041;-69
2023/12/25 05:54:01;;;;;;;157.82;102.50;;;;;;;16.67;nan;99530.94;4871300;29;20057;-71
2023/12/25 05:56:31;;;;;;;152.13;104.47;;;;;;;16.73;nan;99534.63;4870792;29;20559;-69
2023/12/25 05:59:00;;;;;;;151.15;104.65;;;;;;;16.88;nan;99519.94;4875010;29;20147;-69
2023/12/25 06:01:30;;;;;;;147.18;104.65;;;;;;;17.25;nan;99517.50;4871935;29;20048;-70
2023/12/25 06:04:01;;;;;;;147.20;104.05;;;;;;;17.37;nan;99513.09;4872796;29;20060;-69
2023/12/25 06:06:30;;;;;;;146.70;104.50;;;;;;;17.55;nan;99518.53;4870902;29;20045;-71
2023/12/25 06:09:00;;;;;;;148.15;102.00;;;;;;;17.44;nan;99511.16;4876364;29;20048;-70
2023/12/25 06:11:30;;;;;;;140.10;100.93;;;;;;;17.92;nan;99514.13;4869920;29;20041;-70
2023/12/25 06:14:00;;;;;;;148.70;105.85;;;;;;;17.96;nan;99520.69;4873819;29;20041;-71
2023/12/25 06:16:30;;;;;;;149.00;105.07;;;;;;;18.17;nan;99522.16;4871413;29;20055;-70
2023/12/25 06:19:01;;;;;;;156.90;107.80;;;;;;;18.48;nan;99510.47;4875895;29;20052;-70
2023/12/25 06:21:30;;;;;;;156.40;106.57;;;;;;;18.91;nan;99513.88;4871887;29;20049;-69
2023/12/25 06:24:00;;;;;;;146.50;103.70;;;;;;;18.70;nan;99507.13;4880588;29;20045;-69
2023/12/25 06:26:29;;;;;;;136.63;98.85;;;;;;;18.84;nan;99511.31;4871734;29;20071;-69
2023/12/25 06:28:59;;;;;;;141.60;102.13;;;;;;;19.18;nan;99504.44;4867962;29;20060;-67
2023/12/25 06:31:28;;;;;;;136.35;99.68;;;;;;;18.40;nan;99501.69;4868038;29;20397;-69
2023/12/25 06:33:58;;;;;;;148.88;101.72;;;;;;;18.56;nan;99499.47;4870276;29;20045;-70
2023/12/25 06:36:28;;;;;;;149.13;103.18;;;;;;;18.94;nan;99499.22;4868073;29;20660;-69
2023/12/25 06:38:58;;;;;;;141.13;102.57;;;;;;;19.07;nan;99501.72;4868441;29;20045;-69
2023/12/25 06:41:27;;;;;;;147.70;106.18;;;;;;;18.84;nan;99492.53;4868056;29;20065;-70
2023/12/25 06:43:57;;;;;;;146.82;101.57;;;;;;;19.27;nan;99491.50;4868276;29;20077;-69
2023/12/25 06:46:26;;;;;;;140.77;101.20;;;;;;;19.40;nan;99485.09;4860615;29;20053;-69
2023/12/25 06:48:56;;;;;;;139.55;101.32;;;;;;;19.56;nan;99479.13;4869514;29;20060;-67
2023/12/25 06:51:26;;;;;;;137.15;98.43;;;;;;;19.43;nan;99481.97;4867097;29;20147;-67
2023/12/25 06:53:56;;;;;;;144.00;100.43;;;;;;;19.62;nan;99470.09;4883358;29;20442;-67
2023/12/25 06:56:25;;;;;;;147.63;103.55;;;;;;;19.82;nan;99467.91;4869802;29;21661;-68
2023/12/25 06:58:54;;;;;;;144.02;99.00;;;;;;;19.77;nan;99469.66;4866145;29;20049;-68
2023/12/25 07:01:25;;;;;;;147.32;100.75;;;;;;;19.77;nan;99465.09;4868365;29;20049;-68
2023/12/25 07:03:54;;;;;;;142.48;102.38;;;;;;;19.77;nan;99458.91;4867248;29;20054;-68
2023/12/25 07:06:24;;;;;;;145.75;104.25;;;;;;;19.73;nan;99455.88;4868196;29;20856;-69
2023/12/25 07:08:54;;;;;;;158.50;106.63;;;;;;;19.93;nan;99445.56;4868311;29;20044;-69
2023/12/25 07:11:23;;;;;;;144.75;103.72;;;;;;;19.86;nan;99444.06;4868600;29;20060;-70
2023/12/25 07:13:57;;;;;;;141.07;100.82;;;;;;;20.03;nan;99432.38;4850125;29;20144;-69
2023/12/25 07:16:27;;;;;;;147.15;101.00;;;;;;;19.83;nan;99441.81;4867611;29;20503;-70
2023/12/25 07:18:56;;;;;;;141.73;97.40;;;;;;;19.74;nan;99427.91;4873279;29;20437;-70
2023/12/25 07:21:26;;;;;;;139.93;97.22;;;;;;;20.08;nan;99432.47;4868201;29;20049;-70
2023/12/25 07:24:02;;;;;;;137.70;97.85;;;;;;;20.10;nan;99424.16;4868039;29;20131;-71
2023/12/25 07:26:32;;;;;;;140.38;100.07;;;;;;;20.41;nan;99417.56;4846953;29;20140;-72
2023/12/25 07:29:03;;;;;;;143.98;99.70;;;;;;;20.47;nan;99417.44;4855141;29;20537;-72
2023/12/25 07:31:32;;;;;;;146.70;99.72;;;;;;;20.53;nan;99413.00;4867434;29;20048;-72
2023/12/25 07:34:01;;;;;;;132.43;94.65;;;;;;;20.57;nan;99406.06;4869466;29;20057;-72
2023/12/25 07:36:32;;;;;;;137.93;97.10;;;;;;;20.45;nan;99405.25;4856741;29;20061;-71
2023/12/25 07:39:03;;;;;;;131.23;95.47;;;;;;;20.56;nan;99399.84;4866540;29;20067;-72
2023/12/25 07:41:33;;;;;;;136.82;96.57;;;;;;;20.56;nan;99393.66;4849444;29;20369;-71
2023/12/25 07:44:04;;;;;;;130.77;90.07;;;;;;;19.99;nan;99384.66;4867563;29;20067;-72
2023/12/25 07:46:33;;;;;;;136.25;95.60;;;;;;;20.22;nan;99381.94;4866400;29;20995;-70
2023/12/25 07:49:03;;;;;;;132.10;96.28;;;;;;;20.45;nan;99376.47;4875584;29;20635;-70
2023/12/25 07:51:32;;;;;;;136.57;96.03;;;;;;;20.67;nan;99362.38;4869572;29;20056;-71
2023/12/25 07:54:02;;;;;;;129.68;90.95;;;;;;;20.71;nan;99367.03;4881381;29;20056;-71
2023/12/25 07:56:31;;;;;;;127.72;92.00;;;;;;;20.66;nan;99360.75;4878943;29;20067;-70
2023/12/25 07:59:01;;;;;;;130.13;92.82;;;;;;;20.79;nan;99361.25;4865058;29;20049;-73
2023/12/25 08:01:31;;;;;;;142.82;93.65;;;;;;;20.89;nan;99349.84;4869317;29;20059;-69
2023/12/25 08:04:00;;;;;;;128.20;91.40;;;;;;;21.04;nan;99350.09;4868811;29;20059;-69
2023/12/25 08:06:31;;;;;;;124.93;90.63;;;;;;;21.02;nan;99342.25;4845672;29;20638;-70
2023/12/25 08:09:00;;;;;;;135.13;92.95;;;;;;;21.10;nan;99337.53;4869162;29;20405;-74
2023/12/25 08:11:31;;;;;;;135.25;95.70;;;;;;;20.91;nan;99334.25;4868774;29;20105;-70
2023/12/25 08:14:00;;;;;;;128.88;92.30;;;;;;;20.96;nan;99323.56;4867926;29;20465;-70
2023/12/25 08:16:30;;;;;;;127.57;89.88;;;;;;;20.88;nan;99316.72;4878529;29;20605;-70
2023/12/25 08:18:59;;;;;;;127.20;88.57;;;;;;;20.89;nan;99312.94;4881415;29;20105;-70
2023/12/25 08:21:30;;;;;;;124.63;87.00;;;;;;;21.05;nan;99317.53;4852894;29;20049;-70
2023/12/25 08:24:00;;;;;;;127.72;88.47;;;;;;;21.19;nan;99315.34;4884036;29;20112;-71
2023/12/25 08:26:29;;;;;;;229.70;142.43;;;;;;;21.16;nan;99318.53;4864156;29;20061;-70
2023/12/25 08:28:59;;;;;;;234.82;149.32;;;;;;;21.16;nan;99307.75;4869491;29;20132;-70
2023/12/25 08:31:28;;;;;;;243.95;151.75;;;;;;;20.98;nan;99310.66;4854817;29;20750;-71
2023/12/25 08:33:58;;;;;;;248.45;153.57;;;;;;;20.87;nan;99308.88;4875751;29;20064;-71
2023/12/25 08:36:28;;;;;;;244.65;151.63;;;;;;;20.84;nan;99290.53;4871208;29;20065;-71
2023/12/25 08:38:58;;;;;;;236.30;149.68;;;;;;;20.84;nan;99293.22;4875581;29;20056;-71
2023/12/25 08:41:28;;;;;;;240.35;147.85;;;;;;;20.69;nan;99288.38;4881510;29;20049;-74
2023/12/25 08:43:58;;;;;;;236.93;149.52;;;;;;;20.90;nan;99278.75;4872303;29;20069;-72
2023/12/25 08:46:27;;;;;;;250.63;152.90;;;;;;;20.74;nan;99283.09;4851518;29;20059;-70
2023/12/25 08:48:57;;;;;;;235.27;146.70;;;;;;;20.87;nan;99279.25;4870405;29;20663;-70
2023/12/25 08:51:27;;;;;;;231.02;143.27;;;;;;;20.87;nan;99271.19;4841806;29;20146;-70
2023/12/25 08:53:57;;;;;;;227.57;141.98;;;;;;;20.91;nan;99264.25;4886866;29;20051;-70
2023/12/25 08:56:28;;;;;;;228.15;144.05;;;;;;;21.02;nan;99266.84;4873225;29;20145;-70
2023/12/25 08:58:59;;;;;;;201.38;131.68;;;;;;;21.01;nan;99262.53;4874749;29;20325;-70
2023/12/25 09:01:30;;;;;;;140.35;91.57;;;;;;;21.08;nan;99257.78;4879858;29;20500;-70
2023/12/25 09:04:01;;;;;;;120.00;81.47;;;;;;;21.12;nan;99263.47;4860623;29;20049;-69
2023/12/25 09:06:30;;;;;;;108.07;73.93;;;;;;;21.09;nan;99253.22;4865753;29;20353;-69
2023/12/25 09:09:00;;;;;;;102.55;66.47;;;;;;;21.15;nan;99268.44;4874872;29;20045;-70
2023/12/25 09:11:29;;;;;;;100.70;68.10;;;;;;;21.25;nan;99262.34;4878182;29;20076;-70
2023/12/25 09:13:59;;;;;;;92.13;64.55;;;;;;;21.24;nan;99258.84;4854431;29;20080;-69
2023/12/25 09:16:28;;;;;;;86.70;63.10;;;;;;;21.06;nan;99246.44;4871117;29;20049;-70
2023/12/25 09:18:58;;;;;;;90.10;61.10;;;;;;;21.06;nan;99253.72;4858193;29;20041;-69
2023/12/25 09:21:28;;;;;;;84.57;58.28;;;;;;;21.03;nan;99252.31;4891158;29;20049;-70
2023/12/25 09:23:57;;;;;;;82.82;56.55;;;;;;;21.04;nan;99248.56;4872904;29;20049;-70
2023/12/25 09:26:27;;;;;;;87.30;56.70;;;;;;;21.04;nan;99239.66;4871027;29;20051;-69
2023/12/25 09:28:56;;;;;;;85.90;57.60;;;;;;;20.93;nan;99245.97;4871468;29;20041;-69
2023/12/25 09:31:25;;;;;;;83.50;56.22;;;;;;;20.94;nan;99234.13;4875574;29;20181;-69
2023/12/25 09:33:55;;;;;;;75.70;54.20;;;;;;;20.92;nan;99241.63;4874909;29;20045;-69
2023/12/25 09:36:25;;;;;;;78.75;53.42;;;;;;;20.85;nan;99236.41;4872358;29;20057;-69
2023/12/25 09:38:55;;;;;;;85.28;54.35;;;;;;;20.82;nan;99228.81;4867356;29;20057;-69
2023/12/25 09:41:25;;;;;;;74.05;50.70;;;;;;;20.83;nan;99227.78;4876710;29;20090;-69
2023/12/25 09:43:56;;;;;;;69.43;48.40;;;;;;;20.83;nan;99230.47;4876006;29;20426;-70
2023/12/25 09:46:27;;;;;;;71.32;47.75;;;;;;;20.84;nan;99231.28;4871118;29;20068;-70
2023/12/25 09:48:58;;;;;;;67.28;46.33;;;;;;;20.86;nan;99229.97;4873289;29;20441;-69
2023/12/25 09:51:32;;;;;;;69.35;45.35;;;;;;;20.88;nan;99222.47;4868668;29;20060;-69
2023/12/25 09:54:02;;;;;;;68.15;46.88;;;;;;;20.91;nan;99230.06;4881236;29;20060;-70
2023/12/25 09:56:35;;;;;;;66.38;45.55;;;;;;;20.87;nan;99222.72;4872849;29;20057;-69
2023/12/25 09:59:06;;;;;;;;;;;;;;;20.86;nan;99221.06;4865020;29;20393;-68
2023/12/25 10:01:37;;;;;;;53.08;36.53;;;;;;;20.77;nan;99223.38;4872163;29;19927;-69
2023/12/25 10:04:07;;;;;;;57.35;37.15;;;;;;;20.71;nan;99216.28;4875132;29;20099;-69
2023/12/25 10:06:37;;;;;;;50.65;35.33;;;;;;;20.66;nan;99224.28;4871942;29;20049;-69
2023/12/25 10:09:06;;;;;;;55.38;38.97;;;;;;;20.66;nan;99223.47;4872414;29;20428;-69
2023/12/25 10:11:36;;;;;;;60.05;38.88;;;;;;;20.58;nan;99214.72;4874136;29;20056;-68
2023/12/25 10:14:06;;;;;;;60.38;41.58;;;;;;;20.51;nan;99203.31;4871609;29;20045;-69
2023/12/25 10:16:35;;;;;;;56.30;38.60;;;;;;;20.52;nan;99202.25;4871486;29;20076;-70
2023/12/25 10:19:05;;;;;;;54.08;39.60;;;;;;;20.51;nan;99211.38;4870346;29;20065;-70
2023/12/25 10:21:43;;;;;;;52.63;37.10;;;;;;;20.50;nan;99211.63;4873050;29;20045;-70
2023/12/25 10:24:14;;;;;;;59.97;37.47;;;;;;;20.49;nan;99210.78;4870821;29;20140;-70
2023/12/25 10:26:45;;;;;;;50.85;37.10;;;;;;;20.43;nan;99209.09;4871636;29;20060;-69
2023/12/25 10:29:15;;;;;;;50.67;34.40;;;;;;;20.35;nan;99203.31;4871259;29;20492;-69
2023/12/25 10:31:45;;;;;;;41.67;32.47;;;;;;;20.33;nan;99200.84;4875115;29;20072;-70
2023/12/25 10:34:20;;;;;;;49.08;33.38;;;;;;;20.22;nan;99199.03;4889176;29;20056;-69
2023/12/25 10:36:52;;;;;;;47.45;34.17;;;;;;;20.08;nan;99187.75;4870161;29;20060;-69
2023/12/25 10:39:33;;;;;;;48.03;34.25;;;;;;;20.01;nan;99189.75;4870910;29;20080;-69
2023/12/25 10:42:02;;;;;;;57.70;36.42;;;;;;;20.02;nan;99193.25;4871744;29;20554;-70
2023/12/25 10:44:35;;;;;;;59.30;37.58;;;;;;;19.91;nan;99191.47;4874195;29;20563;-69
2023/12/25 10:47:06;;;;;;;;;;;;;;;19.88;nan;99186.53;4871355;29;20045;-70
2023/12/25 10:49:36;;;;;;;55.38;36.45;;;;;;;19.92;nan;99185.00;4873022;29;19928;-70
2023/12/25 10:52:07;;;;;;;56.70;37.97;;;;;;;19.87;nan;99187.63;4870581;29;20045;-70
2023/12/25 10:54:38;;;;;;;68.57;39.03;;;;;;;19.78;nan;99186.38;4871362;29;20044;-69
2023/12/25 10:57:09;;;;;;;54.25;35.83;;;;;;;19.63;nan;99178.81;4867981;29;20069;-70
2023/12/25 10:59:42;;;;;;;55.35;37.45;;;;;;;19.62;nan;99178.00;4868157;29;20045;-69
2023/12/25 11:02:14;;;;;;;56.78;37.90;;;;;;;19.62;nan;99180.69;4868045;29;20052;-69
2023/12/25 11:04:47;;;;;;;52.53;37.28;;;;;;;19.58;nan;99181.41;4869697;29;20068;-69
2023/12/25 11:07:17;;;;;;;56.50;37.88;;;;;;;19.45;nan;99179.81;4871223;29;20137;-68
2023/12/25 11:09:48;;;;;;;52.72;34.40;;;;;;;19.37;nan;99174.78;4854486;29;20059;-71
2023/12/25 11:12:19;;;;;;;54.88;35.38;;;;;;;19.41;nan;99169.75;4840662;29;20041;-70
2023/12/25 11:14:50;;;;;;;47.72;34.95;;;;;;;19.35;nan;99182.25;4869862;29;20117;-70
2023/12/25 11:17:19;;;;;;;51.53;32.42;;;;;;;19.29;nan;99175.16;4869940;29;20378;-70
2023/12/25 11:19:50;;;;;;;58.80;35.55;;;;;;;19.10;nan;99182.53;4871393;29;20059;-72
2023/12/25 11:22:30;;;;;;;49.15;33.60;;;;;;;19.05;nan;99181.63;4869891;29;20072;-69
2023/12/25 11:25:03;;;;;;;49.75;33.15;;;;;;;18.99;nan;99177.16;4855276;29;20076;-69
2023/12/25 11:27:34;;;;;;;52.25;33.97;;;;;;;18.94;nan;99177.88;4870121;29;20060;-69
2023/12/25 11:30:07;;;;;;;49.92;33.92;;;;;;;18.84;nan;99181.16;4869458;29;20091;-69
2023/12/25 11:32:46;;;;;;;51.90;35.95;;;;;;;18.75;nan;99176.38;4868979;29;20753;-69
2023/12/25 11:35:27;;;;;;;57.35;36.08;;;;;;;18.61;nan;99181.16;4868836;29;20044;-70